Decoded Metar for SBRF (RECIFE in BRAZIL) (IATA:REC) | Meteo·Mobile Aviation Weather
aviador You're here:

SBRF Decoded Metar

RECIFE in BRAZIL
Report Time2018-12-14 11:00:00
UTC Time2018-12-14 11:55:15
Flight Rules vfr VFR
Wind130° at 09 kt
W.Decomp.*RWY 18: 7.9 kt HW 4.2 kt LCW
W.Rank130° ranks 2
Current wind is below 130° avg. (9.2)
Visibility9999 m
Phenomena:N/A
Clouds:Scattered 025 Hf
Expected CloudBase > 2,800 ft AGL from Temp-Dew spread
CeilingNone
Temp28°C (ISA +13)
Dew Point21°C (66% RH)
Heat Index30.2°C
QNH1015 hPa
Density Alt1,834 ft
Elevation62 ft
Report Wrong Elevation
Raw Report
METAR SBRF 141100Z 13009KT 9999 SCT025 28/21 Q1015=

Extra information for SBRF:More info

Metar Taf Metar & Taf Last 4 Metars F.Rules Stats Wind Profile Meteogram Temp Stats Airport Information Weather charts Add Link Nearby VenuesMetar ALERT Operation Metar Decoded Social comments